sensor_id;sensor_type;location;lat;lon;timestamp;temperature;humidity
33207;DHT22;19565;46.602;11.534;2023-03-01T00:01:20;6.20;78.20
33207;DHT22;19565;46.602;11.534;2023-03-01T00:03:49;6.30;78.00
33207;DHT22;19565;46.602;11.534;2023-03-01T00:06:19;6.30;77.70
33207;DHT22;19565;46.602;11.534;2023-03-01T00:08:48;6.20;77.70
33207;DHT22;19565;46.602;11.534;2023-03-01T00:11:17;6.20;77.70
33207;DHT22;19565;46.602;11.534;2023-03-01T00:13:47;6.00;78.20
33207;DHT22;19565;46.602;11.534;2023-03-01T00:16:17;6.00;78.40
33207;DHT22;19565;46.602;11.534;2023-03-01T00:18:47;5.90;78.30
33207;DHT22;19565;46.602;11.534;2023-03-01T00:21:15;5.90;78.70
33207;DHT22;19565;46.602;11.534;2023-03-01T00:23:44;5.90;78.80
33207;DHT22;19565;46.602;11.534;2023-03-01T00:26:13;5.90;78.70
33207;DHT22;19565;46.602;11.534;2023-03-01T00:28:41;6.00;78.70
33207;DHT22;19565;46.602;11.534;2023-03-01T00:31:11;6.10;78.40
33207;DHT22;19565;46.602;11.534;2023-03-01T00:33:40;6.10;78.40
33207;DHT22;19565;46.602;11.534;2023-03-01T00:36:10;6.10;78.30
33207;DHT22;19565;46.602;11.534;2023-03-01T00:38:40;6.20;78.20
33207;DHT22;19565;46.602;11.534;2023-03-01T00:41:13;6.20;78.40
33207;DHT22;19565;46.602;11.534;2023-03-01T00:43:43;6.10;78.10
33207;DHT22;19565;46.602;11.534;2023-03-01T00:46:13;6.00;78.40
33207;DHT22;19565;46.602;11.534;2023-03-01T00:48:42;5.90;78.70
33207;DHT22;19565;46.602;11.534;2023-03-01T00:51:12;5.70;79.90
33207;DHT22;19565;46.602;11.534;2023-03-01T00:53:42;5.70;79.30
33207;DHT22;19565;46.602;11.534;2023-03-01T00:56:13;5.70;79.50
33207;DHT22;19565;46.602;11.534;2023-03-01T00:58:41;5.80;79.40
33207;DHT22;19565;46.602;11.534;2023-03-01T01:01:11;5.70;79.60
33207;DHT22;19565;46.602;11.534;2023-03-01T01:03:46;5.90;79.40
33207;DHT22;19565;46.602;11.534;2023-03-01T01:06:19;6.10;79.20
33207;DHT22;19565;46.602;11.534;2023-03-01T01:08:48;6.00;78.80
33207;DHT22;19565;46.602;11.534;2023-03-01T01:11:17;5.90;78.60
33207;DHT22;19565;46.602;11.534;2023-03-01T01:13:46;5.70;79.20
33207;DHT22;19565;46.602;11.534;2023-03-01T01:16:16;5.80;79.00
33207;DHT22;19565;46.602;11.534;2023-03-01T01:18:45;5.90;78.90
33207;DHT22;19565;46.602;11.534;2023-03-01T01:21:14;6.10;78.70
33207;DHT22;19565;46.602;11.534;2023-03-01T01:23:45;6.20;78.50
33207;DHT22;19565;46.602;11.534;2023-03-01T01:26:15;6.30;78.20
33207;DHT22;19565;46.602;11.534;2023-03-01T01:28:44;6.10;77.90
33207;DHT22;19565;46.602;11.534;2023-03-01T01:31:13;5.90;78.50
33207;DHT22;19565;46.602;11.534;2023-03-01T01:33:42;5.80;79.10
33207;DHT22;19565;46.602;11.534;2023-03-01T01:36:10;5.70;79.40
33207;DHT22;19565;46.602;11.534;2023-03-01T01:38:38;5.60;79.40
33207;DHT22;19565;46.602;11.534;2023-03-01T01:41:10;5.70;79.20
33207;DHT22;19565;46.602;11.534;2023-03-01T01:43:41;5.80;79.20
33207;DHT22;19565;46.602;11.534;2023-03-01T01:46:17;6.10;79.00
33207;DHT22;19565;46.602;11.534;2023-03-01T01:48:53;6.00;78.50
33207;DHT22;19565;46.602;11.534;2023-03-01T01:51:29;6.10;78.70
33207;DHT22;19565;46.602;11.534;2023-03-01T01:54:09;6.00;78.70
33207;DHT22;19565;46.602;11.534;2023-03-01T01:56:44;6.10;78.80
33207;DHT22;19565;46.602;11.534;2023-03-01T01:59:13;6.20;78.70
33207;DHT22;19565;46.602;11.534;2023-03-01T02:01:43;6.30;78.50
33207;DHT22;19565;46.602;11.534;2023-03-01T02:04:12;6.30;78.20
33207;DHT22;19565;46.602;11.534;2023-03-01T02:06:44;6.30;78.20
33207;DHT22;19565;46.602;11.534;2023-03-01T02:09:19;6.40;78.20
33207;DHT22;19565;46.602;11.534;2023-03-01T02:11:49;6.20;77.40
33207;DHT22;19565;46.602;11.534;2023-03-01T02:14:18;6.20;77.80
33207;DHT22;19565;46.602;11.534;2023-03-01T02:16:47;6.00;77.70
33207;DHT22;19565;46.602;11.534;2023-03-01T02:19:28;5.90;78.40
33207;DHT22;19565;46.602;11.534;2023-03-01T02:22:05;5.80;78.70
33207;DHT22;19565;46.602;11.534;2023-03-01T02:24:45;5.80;79.00
33207;DHT22;19565;46.602;11.534;2023-03-01T02:27:17;6.00;78.90
33207;DHT22;19565;46.602;11.534;2023-03-01T02:29:52;6.10;78.90
33207;DHT22;19565;46.602;11.534;2023-03-01T02:32:23;6.10;78.30
33207;DHT22;19565;46.602;11.534;2023-03-01T02:34:52;5.90;78.50
33207;DHT22;19565;46.602;11.534;2023-03-01T02:37:21;5.90;78.70
33207;DHT22;19565;46.602;11.534;2023-03-01T02:39:57;5.90;78.80
33207;DHT22;19565;46.602;11.534;2023-03-01T02:42:31;6.00;78.70
33207;DHT22;19565;46.602;11.534;2023-03-01T02:45:03;6.10;78.80
33207;DHT22;19565;46.602;11.534;2023-03-01T02:47:31;6.20;78.70
33207;DHT22;19565;46.602;11.534;2023-03-01T02:49:59;6.10;78.40
33207;DHT22;19565;46.602;11.534;2023-03-01T02:52:34;6.20;78.50
33207;DHT22;19565;46.602;11.534;2023-03-01T02:55:09;6.20;78.30
33207;DHT22;19565;46.602;11.534;2023-03-01T02:57:40;5.90;78.40
33207;DHT22;19565;46.602;11.534;2023-03-01T03:00:14;5.80;78.60
33207;DHT22;19565;46.602;11.534;2023-03-01T03:02:47;5.90;78.80
33207;DHT22;19565;46.602;11.534;2023-03-01T03:05:18;5.80;78.60
33207;DHT22;19565;46.602;11.534;2023-03-01T03:07:47;5.70;78.90
33207;DHT22;19565;46.602;11.534;2023-03-01T03:10:19;5.70;78.90
33207;DHT22;19565;46.602;11.534;2023-03-01T03:12:49;5.60;79.20
33207;DHT22;19565;46.602;11.534;2023-03-01T03:15:20;5.60;79.40
33207;DHT22;19565;46.602;11.534;2023-03-01T03:17:49;5.60;79.60
33207;DHT22;19565;46.602;11.534;2023-03-01T03:20:20;5.80;79.50
33207;DHT22;19565;46.602;11.534;2023-03-01T03:22:50;5.80;78.90
33207;DHT22;19565;46.602;11.534;2023-03-01T03:25:21;5.80;78.80
33207;DHT22;19565;46.602;11.534;2023-03-01T03:27:50;5.70;79.00
33207;DHT22;19565;46.602;11.534;2023-03-01T03:30:26;5.60;79.00
33207;DHT22;19565;46.602;11.534;2023-03-01T03:32:54;5.40;79.70
33207;DHT22;19565;46.602;11.534;2023-03-01T03:35:24;5.30;80.20
33207;DHT22;19565;46.602;11.534;2023-03-01T03:37:53;5.40;80.30
33207;DHT22;19565;46.602;11.534;2023-03-01T03:40:31;5.50;80.20
33207;DHT22;19565;46.602;11.534;2023-03-01T03:43:00;5.70;80.10
33207;DHT22;19565;46.602;11.534;2023-03-01T03:45:29;5.80;79.70
33207;DHT22;19565;46.602;11.534;2023-03-01T03:48:00;5.80;79.70
33207;DHT22;19565;46.602;11.534;2023-03-01T03:50:29;5.70;79.70
33207;DHT22;19565;46.602;11.534;2023-03-01T03:52:57;5.60;80.20
33207;DHT22;19565;46.602;11.534;2023-03-01T03:55:25;5.80;80.00
33207;DHT22;19565;46.602;11.534;2023-03-01T03:57:58;5.90;80.00
33207;DHT22;19565;46.602;11.534;2023-03-01T04:00:30;5.90;80.30
33207;DHT22;19565;46.602;11.534;2023-03-01T04:02:58;5.80;80.20
33207;DHT22;19565;46.602;11.534;2023-03-01T04:05:27;5.80;80.30
33207;DHT22;19565;46.602;11.534;2023-03-01T04:07:57;5.90;80.40
33207;DHT22;19565;46.602;11.534;2023-03-01T04:10:36;5.70;79.70
33207;DHT22;19565;46.602;11.534;2023-03-01T04:13:05;5.60;80.50
33207;DHT22;19565;46.602;11.534;2023-03-01T04:15:35;5.60;81.20
33207;DHT22;19565;46.602;11.534;2023-03-01T04:18:03;5.70;80.80
33207;DHT22;19565;46.602;11.534;2023-03-01T04:20:33;5.70;81.20
33207;DHT22;19565;46.602;11.534;2023-03-01T04:23:04;5.60;80.00
33207;DHT22;19565;46.602;11.534;2023-03-01T04:25:38;5.70;80.50
33207;DHT22;19565;46.602;11.534;2023-03-01T04:28:07;5.80;80.30
33207;DHT22;19565;46.602;11.534;2023-03-01T04:30:37;5.80;80.00
33207;DHT22;19565;46.602;11.534;2023-03-01T04:33:06;5.80;79.70
33207;DHT22;19565;46.602;11.534;2023-03-01T04:35:36;5.90;79.60
33207;DHT22;19565;46.602;11.534;2023-03-01T04:38:05;5.90;79.70
33207;DHT22;19565;46.602;11.534;2023-03-01T04:40:33;5.90;79.70
33207;DHT22;19565;46.602;11.534;2023-03-01T04:43:02;5.80;79.70
33207;DHT22;19565;46.602;11.534;2023-03-01T04:45:32;5.80;79.70
33207;DHT22;19565;46.602;11.534;2023-03-01T04:48:02;5.80;79.70
33207;DHT22;19565;46.602;11.534;2023-03-01T04:50:31;5.70;79.70
33207;DHT22;19565;46.602;11.534;2023-03-01T04:52:59;5.70;79.90
33207;DHT22;19565;46.602;11.534;2023-03-01T04:55:28;5.80;79.90
33207;DHT22;19565;46.602;11.534;2023-03-01T04:57:56;5.90;79.90
33207;DHT22;19565;46.602;11.534;2023-03-01T05:00:24;5.80;79.50
33207;DHT22;19565;46.602;11.534;2023-03-01T05:02:54;5.90;79.90
33207;DHT22;19565;46.602;11.534;2023-03-01T05:05:26;5.90;80.10
33207;DHT22;19565;46.602;11.534;2023-03-01T05:07:58;5.80;79.90
33207;DHT22;19565;46.602;11.534;2023-03-01T05:10:28;5.80;80.20
33207;DHT22;19565;46.602;11.534;2023-03-01T05:12:57;5.50;79.90
33207;DHT22;19565;46.602;11.534;2023-03-01T05:15:27;5.60;80.60
33207;DHT22;19565;46.602;11.534;2023-03-01T05:17:58;5.70;80.90
33207;DHT22;19565;46.602;11.534;2023-03-01T05:20:28;5.70;81.50
33207;DHT22;19565;46.602;11.534;2023-03-01T05:22:58;5.70;80.50
33207;DHT22;19565;46.602;11.534;2023-03-01T05:25:33;5.70;80.50
33207;DHT22;19565;46.602;11.534;2023-03-01T05:28:02;5.60;80.30
33207;DHT22;19565;46.602;11.534;2023-03-01T05:30:31;5.50;80.50
33207;DHT22;19565;46.602;11.534;2023-03-01T05:33:00;5.60;81.00
33207;DHT22;19565;46.602;11.534;2023-03-01T05:35:32;5.60;80.80
33207;DHT22;19565;46.602;11.534;2023-03-01T05:38:00;5.60;80.50
33207;DHT22;19565;46.602;11.534;2023-03-01T05:40:28;5.60;80.50
33207;DHT22;19565;46.602;11.534;2023-03-01T05:42:57;5.60;80.30
33207;DHT22;19565;46.602;11.534;2023-03-01T05:45:26;5.70;80.30
33207;DHT22;19565;46.602;11.534;2023-03-01T05:47:54;5.70;80.30
33207;DHT22;19565;46.602;11.534;2023-03-01T05:50:24;5.70;80.30
33207;DHT22;19565;46.602;11.534;2023-03-01T05:52:58;5.80;80.50
33207;DHT22;19565;46.602;11.534;2023-03-01T05:55:27;5.70;80.20
33207;DHT22;19565;46.602;11.534;2023-03-01T05:57:58;5.70;80.50
33207;DHT22;19565;46.602;11.534;2023-03-01T06:00:26;5.70;80.70
33207;DHT22;19565;46.602;11.534;2023-03-01T06:02:54;5.70;80.80
33207;DHT22;19565;46.602;11.534;2023-03-01T06:05:23;5.70;80.40
33207;DHT22;19565;46.602;11.534;2023-03-01T06:07:52;5.70;80.50
33207;DHT22;19565;46.602;11.534;2023-03-01T06:10:22;5.50;80.40
33207;DHT22;19565;46.602;11.534;2023-03-01T06:12:50;5.40;80.40
33207;DHT22;19565;46.602;11.534;2023-03-01T06:15:18;5.50;80.70
33207;DHT22;19565;46.602;11.534;2023-03-01T06:17:46;5.60;80.40
33207;DHT22;19565;46.602;11.534;2023-03-01T06:20:15;5.70;80.50
33207;DHT22;19565;46.602;11.534;2023-03-01T06:22:44;5.70;80.50
33207;DHT22;19565;46.602;11.534;2023-03-01T06:25:14;5.80;80.50
33207;DHT22;19565;46.602;11.534;2023-03-01T06:27:44;5.80;80.60
33207;DHT22;19565;46.602;11.534;2023-03-01T06:30:13;5.70;80.50
33207;DHT22;19565;46.602;11.534;2023-03-01T06:32:41;5.70;80.90
33207;DHT22;19565;46.602;11.534;2023-03-01T06:35:11;5.60;80.70
33207;DHT22;19565;46.602;11.534;2023-03-01T06:37:39;5.50;80.50
33207;DHT22;19565;46.602;11.534;2023-03-01T06:40:09;5.50;80.40
33207;DHT22;19565;46.602;11.534;2023-03-01T06:42:40;5.30;80.20
33207;DHT22;19565;46.602;11.534;2023-03-01T06:45:11;5.30;80.90
33207;DHT22;19565;46.602;11.534;2023-03-01T06:47:39;5.20;81.70
33207;DHT22;19565;46.602;11.534;2023-03-01T06:50:08;5.20;81.00
33207;DHT22;19565;46.602;11.534;2023-03-01T06:52:36;5.10;81.60
33207;DHT22;19565;46.602;11.534;2023-03-01T06:55:05;5.10;81.40
33207;DHT22;19565;46.602;11.534;2023-03-01T06:57:34;5.20;81.20
33207;DHT22;19565;46.602;11.534;2023-03-01T07:00:02;5.30;81.40
33207;DHT22;19565;46.602;11.534;2023-03-01T07:02:32;5.40;80.50
33207;DHT22;19565;46.602;11.534;2023-03-01T07:05:00;5.50;80.70
33207;DHT22;19565;46.602;11.534;2023-03-01T07:07:28;5.50;80.40
33207;DHT22;19565;46.602;11.534;2023-03-01T07:09:56;5.40;80.40
33207;DHT22;19565;46.602;11.534;2023-03-01T07:12:24;5.40;80.50
33207;DHT22;19565;46.602;11.534;2023-03-01T07:14:52;5.30;80.70
33207;DHT22;19565;46.602;11.534;2023-03-01T07:17:20;5.40;80.70
33207;DHT22;19565;46.602;11.534;2023-03-01T07:19:49;5.40;80.70
33207;DHT22;19565;46.602;11.534;2023-03-01T07:22:17;5.40;80.90
33207;DHT22;19565;46.602;11.534;2023-03-01T07:24:46;5.50;80.70
33207;DHT22;19565;46.602;11.534;2023-03-01T07:27:14;5.50;80.70
33207;DHT22;19565;46.602;11.534;2023-03-01T07:29:42;5.50;80.70
33207;DHT22;19565;46.602;11.534;2023-03-01T07:32:10;5.50;80.60
33207;DHT22;19565;46.602;11.534;2023-03-01T07:34:38;5.60;80.50
33207;DHT22;19565;46.602;11.534;2023-03-01T07:37:07;5.60;80.30
33207;DHT22;19565;46.602;11.534;2023-03-01T07:39:36;5.70;80.00
33207;DHT22;19565;46.602;11.534;2023-03-01T07:42:04;5.70;79.90
33207;DHT22;19565;46.602;11.534;2023-03-01T07:44:32;5.80;79.70
33207;DHT22;19565;46.602;11.534;2023-03-01T07:47:00;5.70;79.50
33207;DHT22;19565;46.602;11.534;2023-03-01T07:49:28;5.70;79.80
33207;DHT22;19565;46.602;11.534;2023-03-01T07:51:56;5.70;80.20
33207;DHT22;19565;46.602;11.534;2023-03-01T07:54:25;5.70;80.00
33207;DHT22;19565;46.602;11.534;2023-03-01T07:56:53;5.80;80.10
33207;DHT22;19565;46.602;11.534;2023-03-01T07:59:22;5.80;80.40
33207;DHT22;19565;46.602;11.534;2023-03-01T08:01:50;6.00;80.20
33207;DHT22;19565;46.602;11.534;2023-03-01T08:04:18;6.00;79.90
33207;DHT22;19565;46.602;11.534;2023-03-01T08:06:46;6.00;79.70
33207;DHT22;19565;46.602;11.534;2023-03-01T08:09:14;6.10;79.50
33207;DHT22;19565;46.602;11.534;2023-03-01T08:11:44;6.20;79.70
33207;DHT22;19565;46.602;11.534;2023-03-01T08:14:12;6.20;80.00
33207;DHT22;19565;46.602;11.534;2023-03-01T08:16:40;6.20;78.70
33207;DHT22;19565;46.602;11.534;2023-03-01T08:19:10;6.20;78.50
33207;DHT22;19565;46.602;11.534;2023-03-01T08:21:38;6.30;78.60
33207;DHT22;19565;46.602;11.534;2023-03-01T08:24:07;6.40;78.90
33207;DHT22;19565;46.602;11.534;2023-03-01T08:26:37;6.40;78.50
33207;DHT22;19565;46.602;11.534;2023-03-01T08:29:06;6.50;78.10
33207;DHT22;19565;46.602;11.534;2023-03-01T08:31:36;6.50;78.20
33207;DHT22;19565;46.602;11.534;2023-03-01T08:34:06;6.40;78.50
33207;DHT22;19565;46.602;11.534;2023-03-01T08:36:36;6.40;78.60
33207;DHT22;19565;46.602;11.534;2023-03-01T08:39:04;6.50;78.40
33207;DHT22;19565;46.602;11.534;2023-03-01T08:41:33;6.40;78.40
33207;DHT22;19565;46.602;11.534;2023-03-01T08:44:01;6.40;78.40
33207;DHT22;19565;46.602;11.534;2023-03-01T08:46:34;6.40;78.40
33207;DHT22;19565;46.602;11.534;2023-03-01T08:49:04;6.40;78.40
33207;DHT22;19565;46.602;11.534;2023-03-01T08:51:34;6.40;78.50
33207;DHT22;19565;46.602;11.534;2023-03-01T08:54:03;6.40;78.60
33207;DHT22;19565;46.602;11.534;2023-03-01T08:56:32;6.40;78.70
33207;DHT22;19565;46.602;11.534;2023-03-01T08:59:00;6.50;78.50
33207;DHT22;19565;46.602;11.534;2023-03-01T09:01:28;6.50;78.30
33207;DHT22;19565;46.602;11.534;2023-03-01T09:03:57;6.60;78.00
33207;DHT22;19565;46.602;11.534;2023-03-01T09:06:25;6.70;78.00
33207;DHT22;19565;46.602;11.534;2023-03-01T09:08:53;6.80;77.60
33207;DHT22;19565;46.602;11.534;2023-03-01T09:11:21;7.00;77.10
33207;DHT22;19565;46.602;11.534;2023-03-01T09:13:50;7.10;77.30
33207;DHT22;19565;46.602;11.534;2023-03-01T09:16:20;7.20;77.00
33207;DHT22;19565;46.602;11.534;2023-03-01T09:18:49;7.30;76.90
33207;DHT22;19565;46.602;11.534;2023-03-01T09:21:21;7.30;76.30
33207;DHT22;19565;46.602;11.534;2023-03-01T09:24:05;7.40;76.30
33207;DHT22;19565;46.602;11.534;2023-03-01T09:26:33;7.50;76.10
33207;DHT22;19565;46.602;11.534;2023-03-01T09:29:01;7.60;76.00
33207;DHT22;19565;46.602;11.534;2023-03-01T09:31:29;7.80;75.90
33207;DHT22;19565;46.602;11.534;2023-03-01T09:33:58;7.90;75.30
33207;DHT22;19565;46.602;11.534;2023-03-01T09:36:27;7.90;74.80
33207;DHT22;19565;46.602;11.534;2023-03-01T09:38:57;8.00;74.50
33207;DHT22;19565;46.602;11.534;2023-03-01T09:41:45;8.10;74.30
33207;DHT22;19565;46.602;11.534;2023-03-01T09:44:21;8.20;74.20
33207;DHT22;19565;46.602;11.534;2023-03-01T09:46:51;8.20;73.70
33207;DHT22;19565;46.602;11.534;2023-03-01T09:49:22;8.30;73.50
33207;DHT22;19565;46.602;11.534;2023-03-01T09:51:58;8.30;73.70
33207;DHT22;19565;46.602;11.534;2023-03-01T09:54:26;8.40;73.80
33207;DHT22;19565;46.602;11.534;2023-03-01T09:57:06;8.40;73.80
33207;DHT22;19565;46.602;11.534;2023-03-01T09:59:49;8.40;73.80
33207;DHT22;19565;46.602;11.534;2023-03-01T10:02:26;8.40;73.40
33207;DHT22;19565;46.602;11.534;2023-03-01T10:05:04;8.50;73.60
33207;DHT22;19565;46.602;11.534;2023-03-01T10:07:39;8.50;73.20
33207;DHT22;19565;46.602;11.534;2023-03-01T10:10:17;8.60;73.30
33207;DHT22;19565;46.602;11.534;2023-03-01T10:12:49;8.60;73.10
33207;DHT22;19565;46.602;11.534;2023-03-01T10:15:22;8.60;73.00
33207;DHT22;19565;46.602;11.534;2023-03-01T10:17:55;8.70;72.90
33207;DHT22;19565;46.602;11.534;2023-03-01T10:20:28;8.80;72.90
33207;DHT22;19565;46.602;11.534;2023-03-01T10:22:59;8.90;72.80
33207;DHT22;19565;46.602;11.534;2023-03-01T10:25:44;9.00;71.90
33207;DHT22;19565;46.602;11.534;2023-03-01T10:28:17;9.10;72.10
33207;DHT22;19565;46.602;11.534;2023-03-01T10:30:47;9.20;71.90
33207;DHT22;19565;46.602;11.534;2023-03-01T10:33:18;9.30;72.00
33207;DHT22;19565;46.602;11.534;2023-03-01T10:35:47;9.40;70.30
33207;DHT22;19565;46.602;11.534;2023-03-01T10:38:18;9.50;70.60
33207;DHT22;19565;46.602;11.534;2023-03-01T10:40:52;9.60;70.00
33207;DHT22;19565;46.602;11.534;2023-03-01T10:43:21;9.70;70.20
33207;DHT22;19565;46.602;11.534;2023-03-01T10:45:49;9.70;69.90
33207;DHT22;19565;46.602;11.534;2023-03-01T10:48:19;9.80;69.80
33207;DHT22;19565;46.602;11.534;2023-03-01T10:50:51;9.90;69.80
33207;DHT22;19565;46.602;11.534;2023-03-01T10:53:34;9.90;69.50
33207;DHT22;19565;46.602;11.534;2023-03-01T10:56:05;10.00;69.60
33207;DHT22;19565;46.602;11.534;2023-03-01T10:58:35;9.90;69.50
33207;DHT22;19565;46.602;11.534;2023-03-01T11:01:05;9.90;69.60
33207;DHT22;19565;46.602;11.534;2023-03-01T11:03:35;9.90;69.80
33207;DHT22;19565;46.602;11.534;2023-03-01T11:06:06;9.90;69.80
33207;DHT22;19565;46.602;11.534;2023-03-01T11:08:40;9.90;69.80
33207;DHT22;19565;46.602;11.534;2023-03-01T11:11:29;10.00;69.60
33207;DHT22;19565;46.602;11.534;2023-03-01T11:14:00;10.10;69.40
33207;DHT22;19565;46.602;11.534;2023-03-01T11:16:44;10.20;69.60
33207;DHT22;19565;46.602;11.534;2023-03-01T11:19:19;10.40;69.30
33207;DHT22;19565;46.602;11.534;2023-03-01T11:21:55;10.50;69.40
33207;DHT22;19565;46.602;11.534;2023-03-01T11:24:31;10.60;69.30
33207;DHT22;19565;46.602;11.534;2023-03-01T11:27:04;10.60;69.20
33207;DHT22;19565;46.602;11.534;2023-03-01T11:29:39;10.60;69.50
33207;DHT22;19565;46.602;11.534;2023-03-01T11:32:15;10.70;69.30
33207;DHT22;19565;46.602;11.534;2023-03-01T11:34:47;10.70;69.50
33207;DHT22;19565;46.602;11.534;2023-03-01T11:37:23;10.80;69.50
33207;DHT22;19565;46.602;11.534;2023-03-01T11:39:59;10.90;69.10
33207;DHT22;19565;46.602;11.534;2023-03-01T11:42:46;10.90;69.00
33207;DHT22;19565;46.602;11.534;2023-03-01T11:45:16;10.80;69.00
33207;DHT22;19565;46.602;11.534;2023-03-01T11:48:00;10.90;69.00
33207;DHT22;19565;46.602;11.534;2023-03-01T11:50:39;11.00;69.00
33207;DHT22;19565;46.602;11.534;2023-03-01T11:53:23;11.10;68.90
33207;DHT22;19565;46.602;11.534;2023-03-01T11:56:07;11.10;68.60
33207;DHT22;19565;46.602;11.534;2023-03-01T11:58:50;11.20;68.50
33207;DHT22;19565;46.602;11.534;2023-03-01T12:01:30;11.20;68.30
33207;DHT22;19565;46.602;11.534;2023-03-01T12:06:57;11.30;68.40
33207;DHT22;19565;46.602;11.534;2023-03-01T12:09:38;11.40;68.40
33207;DHT22;19565;46.602;11.534;2023-03-01T12:12:26;11.40;68.00
33207;DHT22;19565;46.602;11.534;2023-03-01T12:15:11;11.40;68.00
33207;DHT22;19565;46.602;11.534;2023-03-01T12:18:03;11.50;67.90
33207;DHT22;19565;46.602;11.534;2023-03-01T12:20:38;11.60;67.90
33207;DHT22;19565;46.602;11.534;2023-03-01T12:26:21;11.60;67.60
33207;DHT22;19565;46.602;11.534;2023-03-01T12:29:13;11.70;67.70
33207;DHT22;19565;46.602;11.534;2023-03-01T12:32:09;11.70;67.70
33207;DHT22;19565;46.602;11.534;2023-03-01T12:34:50;11.70;67.80
33207;DHT22;19565;46.602;11.534;2023-03-01T12:37:25;11.80;67.90
33207;DHT22;19565;46.602;11.534;2023-03-01T12:40:14;11.90;67.70
33207;DHT22;19565;46.602;11.534;2023-03-01T12:42:50;12.00;67.70
33207;DHT22;19565;46.602;11.534;2023-03-01T12:45:39;12.00;67.70
33207;DHT22;19565;46.602;11.534;2023-03-01T12:48:22;12.00;67.60
33207;DHT22;19565;46.602;11.534;2023-03-01T12:50:53;12.00;67.80
33207;DHT22;19565;46.602;11.534;2023-03-01T12:53:27;12.10;67.80
33207;DHT22;19565;46.602;11.534;2023-03-01T12:55:59;12.10;68.50
33207;DHT22;19565;46.602;11.534;2023-03-01T12:58:32;12.20;68.00
33207;DHT22;19565;46.602;11.534;2023-03-01T13:01:31;12.20;67.80
33207;DHT22;19565;46.602;11.534;2023-03-01T13:04:21;12.30;67.70
33207;DHT22;19565;46.602;11.534;2023-03-01T13:07:02;12.30;67.90
33207;DHT22;19565;46.602;11.534;2023-03-01T13:09:38;12.40;67.90
33207;DHT22;19565;46.602;11.534;2023-03-01T13:12:42;12.40;67.80
33207;DHT22;19565;46.602;11.534;2023-03-01T13:15:25;12.50;67.90
33207;DHT22;19565;46.602;11.534;2023-03-01T13:17:56;12.50;68.00
33207;DHT22;19565;46.602;11.534;2023-03-01T13:20:29;12.50;67.90
33207;DHT22;19565;46.602;11.534;2023-03-01T13:23:09;12.60;67.70
33207;DHT22;19565;46.602;11.534;2023-03-01T13:26:07;12.70;67.80
33207;DHT22;19565;46.602;11.534;2023-03-01T13:35:01;12.80;67.40
33207;DHT22;19565;46.602;11.534;2023-03-01T13:37:36;12.80;67.40
33207;DHT22;19565;46.602;11.534;2023-03-01T13:43:28;12.90;67.40
33207;DHT22;19565;46.602;11.534;2023-03-01T13:45:57;12.90;67.20
33207;DHT22;19565;46.602;11.534;2023-03-01T13:48:28;12.80;67.30
33207;DHT22;19565;46.602;11.534;2023-03-01T13:51:00;12.80;67.50
33207;DHT22;19565;46.602;11.534;2023-03-01T13:53:31;12.90;67.40
33207;DHT22;19565;46.602;11.534;2023-03-01T13:56:03;12.90;67.40
33207;DHT22;19565;46.602;11.534;2023-03-01T13:58:46;12.90;67.60
33207;DHT22;19565;46.602;11.534;2023-03-01T14:01:26;12.90;67.60
33207;DHT22;19565;46.602;11.534;2023-03-01T14:03:55;12.90;67.90
33207;DHT22;19565;46.602;11.534;2023-03-01T14:06:26;12.90;67.80
33207;DHT22;19565;46.602;11.534;2023-03-01T14:09:03;12.90;67.90
33207;DHT22;19565;46.602;11.534;2023-03-01T14:11:56;12.90;67.70
33207;DHT22;19565;46.602;11.534;2023-03-01T14:14:42;12.90;67.70
33207;DHT22;19565;46.602;11.534;2023-03-01T14:17:36;12.90;67.70
33207;DHT22;19565;46.602;11.534;2023-03-01T14:20:11;12.90;67.80
33207;DHT22;19565;46.602;11.534;2023-03-01T14:22:42;13.00;68.50
33207;DHT22;19565;46.602;11.534;2023-03-01T14:25:24;13.00;67.50
33207;DHT22;19565;46.602;11.534;2023-03-01T14:27:59;13.10;67.40
33207;DHT22;19565;46.602;11.534;2023-03-01T14:30:34;13.10;67.50
33207;DHT22;19565;46.602;11.534;2023-03-01T14:33:04;13.10;67.30
33207;DHT22;19565;46.602;11.534;2023-03-01T14:35:35;13.10;67.30
33207;DHT22;19565;46.602;11.534;2023-03-01T14:38:05;13.00;67.20
33207;DHT22;19565;46.602;11.534;2023-03-01T14:40:35;13.00;67.30
33207;DHT22;19565;46.602;11.534;2023-03-01T14:43:10;13.00;67.30
33207;DHT22;19565;46.602;11.534;2023-03-01T14:45:38;13.00;67.60
33207;DHT22;19565;46.602;11.534;2023-03-01T14:48:07;12.90;67.60
33207;DHT22;19565;46.602;11.534;2023-03-01T14:50:40;12.90;67.60
33207;DHT22;19565;46.602;11.534;2023-03-01T14:53:17;12.80;67.90
33207;DHT22;19565;46.602;11.534;2023-03-01T14:55:47;12.70;68.20
33207;DHT22;19565;46.602;11.534;2023-03-01T14:58:19;12.70;68.40
33207;DHT22;19565;46.602;11.534;2023-03-01T15:00:50;12.70;68.20
33207;DHT22;19565;46.602;11.534;2023-03-01T15:03:25;12.60;68.30
33207;DHT22;19565;46.602;11.534;2023-03-01T15:05:53;12.60;68.50
33207;DHT22;19565;46.602;11.534;2023-03-01T15:08:24;12.60;68.40
33207;DHT22;19565;46.602;11.534;2023-03-01T15:10:58;12.60;68.40
33207;DHT22;19565;46.602;11.534;2023-03-01T15:13:31;12.60;68.50
33207;DHT22;19565;46.602;11.534;2023-03-01T15:16:06;12.60;68.50
33207;DHT22;19565;46.602;11.534;2023-03-01T15:18:35;12.50;68.70
33207;DHT22;19565;46.602;11.534;2023-03-01T15:21:09;12.50;68.80
33207;DHT22;19565;46.602;11.534;2023-03-01T15:23:39;12.50;68.60
33207;DHT22;19565;46.602;11.534;2023-03-01T15:26:24;12.50;68.90
33207;DHT22;19565;46.602;11.534;2023-03-01T15:28:55;12.40;69.00
33207;DHT22;19565;46.602;11.534;2023-03-01T15:31:27;12.40;69.00
33207;DHT22;19565;46.602;11.534;2023-03-01T15:34:08;12.40;69.20
33207;DHT22;19565;46.602;11.534;2023-03-01T15:36:41;12.40;69.20
33207;DHT22;19565;46.602;11.534;2023-03-01T15:42:36;12.30;69.60
33207;DHT22;19565;46.602;11.534;2023-03-01T15:45:08;12.30;69.90
33207;DHT22;19565;46.602;11.534;2023-03-01T15:47:40;12.20;69.80
33207;DHT22;19565;46.602;11.534;2023-03-01T15:50:16;12.20;69.90
33207;DHT22;19565;46.602;11.534;2023-03-01T15:52:44;12.20;70.00
33207;DHT22;19565;46.602;11.534;2023-03-01T15:55:17;12.10;70.10
33207;DHT22;19565;46.602;11.534;2023-03-01T15:57:48;12.10;70.00
33207;DHT22;19565;46.602;11.534;2023-03-01T16:00:17;12.10;70.20
33207;DHT22;19565;46.602;11.534;2023-03-01T16:02:45;12.10;70.50
33207;DHT22;19565;46.602;11.534;2023-03-01T16:05:20;12.00;70.70
33207;DHT22;19565;46.602;11.534;2023-03-01T16:07:48;11.90;71.00
33207;DHT22;19565;46.602;11.534;2023-03-01T16:10:17;11.90;71.20
33207;DHT22;19565;46.602;11.534;2023-03-01T16:12:47;11.80;71.20
33207;DHT22;19565;46.602;11.534;2023-03-01T16:15:18;11.80;71.60
33207;DHT22;19565;46.602;11.534;2023-03-01T16:17:46;11.70;71.60